Ana Sayfa
METAR-TAF:

METAR-TAF

Havaalanları :

Ottawa, Ontario, Kanada

Enlem: 45-19N, Boylam: 075-40W, yükseklik: 116 m

Güncel hava durumu gözlemi

Rapor saat 02:00 UTC de 53 dakika önce yapıldı.
Rüzgar kuzeydan 8 kt
Sıcaklık 22°C
Nem 57%
Basınç 1014 hPa
Görüş mesafesi: 24.1 km
10000 ft yükseklikte az bulutlu
24000 ft yükseklikte az bulutlu

METAR: CYOW 180200Z 01008KT 15SM FEW100 FEW240 22/13 A2994 RMK AC1CI2 AC TR SLP141 DENSITY ALT 1300FT

Saat: 22:53 (02:53 UTC)

Tahmin

Rapor saat 02:38 UTC de 15 dakika önce yapıldı.
Ayın 18'si saat 03 UTC'den ayın 18'si saat 24 UTC'ye kadar geçerli Tahmin
Rüzgar kuzey/kuzeydoğudan 8 kt
Görüş mesafesi: 10 km
24000 ft yükseklikte az bulutlu
Dönüşüyor
ayın 18'si saat 13 UTC'den ayın 18'si saat 15 UTC'ye kadar
Rüzgar doğudan 10 kt

TAF: CYOW 180238Z 1803/1824 02008KT P6SM FEW240 BECMG 1813/1815 09010KT RMK NXT FCST BY 180600Z

4.000'den fazla havaalanı için hava durumu gözlemleri ve tahminleri (METAR ve TAF raporları).

Kullanılabilir istasyonlar harita üzerinde sarı ve kırmızı noktalarla gösterilir.

İstasyonun adını görmek için fareyi noktanın üzerinde gezdirin.

Sonrasında hava gözlem ve tahminlerini görmek için tıklayın.

Haritayı değiştirmek için: yaklaştırmak için siyah artı işaretli yeşil düğmeye ve uzaklaştırmak için de eksi işaretli düğmeye hızla tıklayın; bitişik haritalar için yeşil okları kullanın.


METAR-TAF: